createdAt,value
2018-12-10T00:00:45.397Z,1003.59
2018-12-10T00:01:45.363Z,1003.64
2018-12-10T00:02:46.228Z,1003.65
2018-12-10T00:03:45.298Z,1003.69
2018-12-10T00:04:45.259Z,1003.62
2018-12-10T00:05:45.227Z,1003.67
2018-12-10T00:06:45.192Z,1003.69
2018-12-10T00:07:45.156Z,1003.67
2018-12-10T00:08:45.121Z,1003.73
2018-12-10T00:09:45.089Z,1003.67
2018-12-10T00:10:45.055Z,1003.64
2018-12-10T00:11:45.020Z,1003.74
2018-12-10T00:12:44.986Z,1003.75
2018-12-10T00:13:44.952Z,1003.78
2018-12-10T00:14:44.918Z,1003.77
2018-12-10T00:15:44.884Z,1003.74
2018-12-10T00:16:44.849Z,1003.84
2018-12-10T00:17:44.814Z,1003.81
2018-12-10T00:18:44.782Z,1003.76
2018-12-10T00:19:44.749Z,1003.81
2018-12-10T00:20:44.714Z,1003.79
2018-12-10T00:21:44.678Z,1003.87
2018-12-10T00:22:44.645Z,1003.85
2018-12-10T00:23:44.608Z,1003.90
2018-12-10T00:24:44.576Z,1003.92
2018-12-10T00:25:44.541Z,1003.96
2018-12-10T00:26:44.508Z,1003.86
2018-12-10T00:27:44.474Z,1003.99
2018-12-10T00:28:44.438Z,1003.99
2018-12-10T00:29:44.406Z,1003.97
2018-12-10T00:30:44.371Z,1004.00
2018-12-10T00:31:44.336Z,1004.05
2018-12-10T00:32:44.302Z,1004.06
2018-12-10T00:33:44.269Z,1004.07
2018-12-10T00:34:44.233Z,1004.08
2018-12-10T00:35:44.199Z,1004.01
2018-12-10T00:36:44.168Z,1004.07
2018-12-10T00:37:44.129Z,1004.12
2018-12-10T00:38:44.096Z,1004.06
2018-12-10T00:39:44.061Z,1004.04
2018-12-10T00:40:44.033Z,1004.14
2018-12-10T00:41:43.995Z,1004.09
2018-12-10T00:42:43.963Z,1004.17
2018-12-10T00:43:43.924Z,1004.11
2018-12-10T00:44:43.892Z,1004.16
2018-12-10T00:45:43.859Z,1004.18
2018-12-10T00:46:43.823Z,1004.21
2018-12-10T00:47:43.792Z,1004.23
2018-12-10T00:48:43.754Z,1004.24
2018-12-10T00:49:43.721Z,1004.26
2018-12-10T00:50:43.686Z,1004.29
2018-12-10T00:51:43.653Z,1004.31
2018-12-10T00:52:43.617Z,1004.28
2018-12-10T00:53:43.584Z,1004.37
2018-12-10T00:54:43.549Z,1004.31
2018-12-10T00:55:43.514Z,1004.31
2018-12-10T00:56:43.484Z,1004.36
2018-12-10T00:57:43.447Z,1004.34
2018-12-10T00:58:43.412Z,1004.31
2018-12-10T00:59:43.378Z,1004.35
2018-12-10T01:00:43.343Z,1004.33
2018-12-10T01:01:43.311Z,1004.32
2018-12-10T01:02:43.275Z,1004.38
2018-12-10T01:03:43.240Z,1004.43
2018-12-10T01:04:43.206Z,1004.41
2018-12-10T01:05:43.188Z,1004.45
2018-12-10T01:06:43.138Z,1004.49
2018-12-10T01:07:43.106Z,1004.48
2018-12-10T01:08:43.070Z,1004.51
2018-12-10T01:09:43.037Z,1004.54
2018-12-10T01:10:43.002Z,1004.51
2018-12-10T01:11:42.966Z,1004.54
2018-12-10T01:12:42.932Z,1004.56
2018-12-10T01:13:42.898Z,1004.54
2018-12-10T01:14:42.865Z,1004.61
2018-12-10T01:15:42.829Z,1004.65
2018-12-10T01:16:42.795Z,1004.65
2018-12-10T01:17:42.761Z,1004.64
2018-12-10T01:18:42.728Z,1004.66
2018-12-10T01:19:42.693Z,1004.72
2018-12-10T01:20:42.660Z,1004.77
2018-12-10T01:21:42.625Z,1004.76
2018-12-10T01:22:42.592Z,1004.74
2018-12-10T01:23:42.556Z,1004.77
2018-12-10T01:24:42.521Z,1004.73
2018-12-10T01:25:42.487Z,1004.79
2018-12-10T01:26:42.454Z,1004.85
2018-12-10T01:27:42.418Z,1004.89
2018-12-10T01:28:42.387Z,1004.82
2018-12-10T01:29:42.354Z,1004.86
2018-12-10T01:30:42.316Z,1004.91
2018-12-10T01:31:42.281Z,1004.86
2018-12-10T01:32:42.249Z,1004.91
2018-12-10T01:33:42.215Z,1004.95
2018-12-10T01:34:42.180Z,1004.91
2018-12-10T01:35:42.145Z,1005.01
2018-12-10T01:36:42.111Z,1004.88
2018-12-10T01:37:42.079Z,1004.92
2018-12-10T01:38:42.045Z,1004.92
2018-12-10T01:39:42.009Z,1004.94
2018-12-10T01:40:41.976Z,1004.93
2018-12-10T01:41:43.320Z,1005.05
2018-12-10T01:42:41.907Z,1004.98
2018-12-10T01:43:41.873Z,1005.02
2018-12-10T01:44:41.838Z,1005.04
2018-12-10T01:45:41.807Z,1004.99
2018-12-10T01:46:41.770Z,1004.94
2018-12-10T01:47:41.738Z,1005.00
2018-12-10T01:48:41.703Z,1005.00
2018-12-10T01:49:41.667Z,1004.96
2018-12-10T01:50:41.633Z,1004.97
2018-12-10T01:51:41.598Z,1005.05
2018-12-10T01:52:41.564Z,1005.04
2018-12-10T01:53:41.533Z,1005.01
2018-12-10T01:54:41.499Z,1005.08
2018-12-10T01:55:41.461Z,1004.98
2018-12-10T01:56:41.427Z,1004.99
2018-12-10T01:57:41.393Z,1005.08
2018-12-10T01:58:41.363Z,1005.12
2018-12-10T01:59:41.326Z,1005.14
2018-12-10T02:00:41.291Z,1005.17
2018-12-10T02:01:41.255Z,1005.12
2018-12-10T02:02:41.222Z,1005.18
2018-12-10T02:03:41.186Z,1005.10
2018-12-10T02:04:41.152Z,1005.12
2018-12-10T02:05:41.122Z,1005.17
2018-12-10T02:06:41.085Z,1005.21
2018-12-10T02:07:41.051Z,1005.26
2018-12-10T02:08:41.015Z,1005.25
2018-12-10T02:09:40.982Z,1005.17
2018-12-10T02:10:40.947Z,1005.30
2018-12-10T02:11:40.912Z,1005.27
2018-12-10T02:12:40.880Z,1005.34
2018-12-10T02:13:40.845Z,1005.31
2018-12-10T02:14:40.810Z,1005.34
2018-12-10T02:15:40.774Z,1005.39
2018-12-10T02:16:40.747Z,1005.44
2018-12-10T02:17:40.707Z,1005.50
2018-12-10T02:18:40.673Z,1005.50
2018-12-10T02:19:41.458Z,1005.46
2018-12-10T02:20:40.605Z,1005.50
2018-12-10T02:21:40.568Z,1005.49
2018-12-10T02:22:40.535Z,1005.56
2018-12-10T02:23:40.500Z,1005.49
2018-12-10T02:24:40.464Z,1005.52
2018-12-10T02:25:40.431Z,1005.46
2018-12-10T02:26:40.396Z,1005.51
2018-12-10T02:27:40.362Z,1005.55
2018-12-10T02:28:40.328Z,1005.51
2018-12-10T02:29:40.295Z,1005.46
2018-12-10T02:30:40.261Z,1005.44
2018-12-10T02:31:40.226Z,1005.58
2018-12-10T02:32:40.192Z,1005.49
2018-12-10T02:33:40.159Z,1005.49
2018-12-10T02:34:40.124Z,1005.56
2018-12-10T02:35:40.087Z,1005.50
2018-12-10T02:36:40.055Z,1005.52
2018-12-10T02:37:40.021Z,1005.49
2018-12-10T02:38:39.986Z,1005.55
2018-12-10T02:39:39.952Z,1005.59
2018-12-10T02:40:39.918Z,1005.63
2018-12-10T02:41:39.884Z,1005.59
2018-12-10T02:42:39.848Z,1005.60
2018-12-10T02:43:39.814Z,1005.54
2018-12-10T02:44:39.781Z,1005.60
2018-12-10T02:45:39.746Z,1005.60
2018-12-10T02:46:39.712Z,1005.58
2018-12-10T02:47:39.677Z,1005.59
2018-12-10T02:48:39.647Z,1005.62
2018-12-10T02:49:39.608Z,1005.64
2018-12-10T02:50:39.582Z,1005.64
2018-12-10T02:51:39.542Z,1005.70
2018-12-10T02:52:39.503Z,1005.75
2018-12-10T02:53:39.469Z,1005.72
2018-12-10T02:54:39.437Z,1005.75
2018-12-10T02:55:39.401Z,1005.74
2018-12-10T02:56:39.370Z,1005.77
2018-12-10T02:57:39.332Z,1005.73
2018-12-10T02:58:39.298Z,1005.80
2018-12-10T02:59:39.264Z,1005.75
2018-12-10T03:00:39.229Z,1005.88
2018-12-10T03:01:39.195Z,1005.79
2018-12-10T03:02:39.163Z,1005.79
2018-12-10T03:03:39.125Z,1005.93
2018-12-10T03:04:39.089Z,1005.88
2018-12-10T03:05:39.055Z,1005.87
2018-12-10T03:06:39.021Z,1006.00
2018-12-10T03:07:38.994Z,1006.01
2018-12-10T03:08:38.954Z,1006.02
2018-12-10T03:09:38.919Z,1006.09
2018-12-10T03:10:38.884Z,1006.13
2018-12-10T03:11:38.851Z,1006.14
2018-12-10T03:12:38.816Z,1006.07
2018-12-10T03:13:38.781Z,1006.11
2018-12-10T03:14:38.747Z,1006.10
2018-12-10T03:15:38.712Z,1006.08
2018-12-10T03:16:38.680Z,1006.09
2018-12-10T03:17:38.643Z,1006.11
2018-12-10T03:18:38.610Z,1006.12
2018-12-10T03:19:38.575Z,1006.21
2018-12-10T03:20:38.539Z,1006.13
2018-12-10T03:21:38.507Z,1006.24
2018-12-10T03:22:38.476Z,1006.13
2018-12-10T03:23:38.440Z,1006.24
2018-12-10T03:24:38.403Z,1006.25
2018-12-10T03:25:38.369Z,1006.28
2018-12-10T03:26:38.334Z,1006.26
2018-12-10T03:27:38.300Z,1006.33
2018-12-10T03:28:38.376Z,1006.28
2018-12-10T03:29:38.236Z,1006.43
2018-12-10T03:30:38.198Z,1006.30
2018-12-10T03:31:38.163Z,1006.37
2018-12-10T03:32:38.128Z,1006.34
2018-12-10T03:33:38.143Z,1006.39
2018-12-10T03:34:38.064Z,1006.41
2018-12-10T03:35:38.024Z,1006.41
2018-12-10T03:36:38.140Z,1006.52
2018-12-10T03:37:37.956Z,1006.50
2018-12-10T03:38:37.921Z,1006.49
2018-12-10T03:39:37.887Z,1006.48
2018-12-10T03:40:37.851Z,1006.54
2018-12-10T03:41:37.817Z,1006.51
2018-12-10T03:42:37.782Z,1006.52
2018-12-10T03:43:37.747Z,1006.53
2018-12-10T03:44:37.712Z,1006.43
2018-12-10T03:45:37.677Z,1006.51
2018-12-10T03:46:37.647Z,1006.53
2018-12-10T03:47:37.607Z,1006.56
2018-12-10T03:48:37.574Z,1006.60
2018-12-10T03:49:37.545Z,1006.56
2018-12-10T03:50:37.508Z,1006.65
2018-12-10T03:51:37.470Z,1006.55
2018-12-10T03:52:37.435Z,1006.59
2018-12-10T03:53:37.399Z,1006.52
2018-12-10T03:54:37.366Z,1006.57
2018-12-10T03:55:37.331Z,1006.57
2018-12-10T03:56:37.299Z,1006.64
2018-12-10T03:57:37.264Z,1006.75
2018-12-10T03:58:37.229Z,1006.75
2018-12-10T03:59:37.192Z,1006.70
2018-12-10T04:00:37.161Z,1006.73
2018-12-10T04:01:37.124Z,1006.71
2018-12-10T04:02:37.088Z,1006.66
2018-12-10T04:03:37.060Z,1006.70
2018-12-10T04:04:37.020Z,1006.74
2018-12-10T04:05:36.986Z,1006.78
2018-12-10T04:06:36.951Z,1006.75
2018-12-10T04:07:36.919Z,1006.77
2018-12-10T04:08:36.881Z,1006.81
2018-12-10T04:09:36.848Z,1006.83
2018-12-10T04:10:36.812Z,1006.87
2018-12-10T04:11:36.804Z,1006.88
2018-12-10T04:12:36.747Z,1006.93
2018-12-10T04:13:36.711Z,1006.90
2018-12-10T04:14:36.675Z,1006.97
2018-12-10T04:15:36.639Z,1006.91
2018-12-10T04:16:36.604Z,1006.97
2018-12-10T04:17:36.571Z,1007.03
2018-12-10T04:18:36.537Z,1007.10
2018-12-10T04:19:36.502Z,1007.04
2018-12-10T04:20:36.468Z,1007.11
2018-12-10T04:21:36.440Z,1007.05
2018-12-10T04:22:36.399Z,1007.07
2018-12-10T04:23:36.363Z,1007.06
2018-12-10T04:24:36.330Z,1007.09
2018-12-10T04:25:36.295Z,1007.08
2018-12-10T04:26:36.263Z,1007.07
2018-12-10T04:27:36.226Z,1007.13
2018-12-10T04:28:36.193Z,1007.16
2018-12-10T04:29:36.157Z,1007.16
2018-12-10T04:30:36.128Z,1007.13
2018-12-10T04:31:36.439Z,1007.20
2018-12-10T04:32:36.054Z,1007.23
2018-12-10T04:33:36.020Z,1007.23
2018-12-10T04:34:35.987Z,1007.27
2018-12-10T04:35:35.951Z,1007.25
2018-12-10T04:36:35.915Z,1007.21
2018-12-10T04:37:35.883Z,1007.31
2018-12-10T04:38:35.849Z,1007.36
2018-12-10T04:39:35.811Z,1007.25
2018-12-10T04:40:35.778Z,1007.25
2018-12-10T04:41:35.744Z,1007.20
2018-12-10T04:42:35.710Z,1007.28
2018-12-10T04:43:35.676Z,1007.34
2018-12-10T04:44:35.641Z,1007.23
2018-12-10T04:45:35.608Z,1007.26
2018-12-10T04:46:35.574Z,1007.22
2018-12-10T04:47:35.539Z,1007.25
2018-12-10T04:48:35.507Z,1007.30
2018-12-10T04:49:35.471Z,1007.23
2018-12-10T04:50:35.436Z,1007.30
2018-12-10T04:51:35.402Z,1007.30
2018-12-10T04:52:35.369Z,1007.29
2018-12-10T04:53:35.334Z,1007.28
2018-12-10T04:54:35.300Z,1007.30
2018-12-10T04:55:35.263Z,1007.30
2018-12-10T04:56:35.230Z,1007.28
2018-12-10T04:57:35.194Z,1007.31
2018-12-10T04:58:35.160Z,1007.29
2018-12-10T04:59:35.126Z,1007.34
2018-12-10T05:00:35.092Z,1007.36
2018-12-10T05:01:35.056Z,1007.39
2018-12-10T05:02:35.022Z,1007.47
2018-12-10T05:03:34.986Z,1007.50
2018-12-10T05:04:34.952Z,1007.41
2018-12-10T05:05:34.919Z,1007.40
2018-12-10T05:06:34.882Z,1007.39
2018-12-10T05:07:34.849Z,1007.41
2018-12-10T05:08:34.816Z,1007.48
2018-12-10T05:09:34.780Z,1007.49
2018-12-10T05:10:34.745Z,1007.48
2018-12-10T05:11:34.709Z,1007.48
2018-12-10T05:12:34.676Z,1007.52
2018-12-10T05:13:34.639Z,1007.58
2018-12-10T05:14:34.664Z,1007.55
2018-12-10T05:15:34.570Z,1007.57
2018-12-10T05:16:34.536Z,1007.57
2018-12-10T05:17:34.503Z,1007.54
2018-12-10T05:18:34.469Z,1007.57
2018-12-10T05:19:34.430Z,1007.54
2018-12-10T05:20:34.397Z,1007.56
2018-12-10T05:21:34.363Z,1007.59
2018-12-10T05:22:34.329Z,1007.58
2018-12-10T05:23:34.292Z,1007.58
2018-12-10T05:24:34.258Z,1007.62
2018-12-10T05:25:34.223Z,1007.64
2018-12-10T05:26:34.187Z,1007.69
2018-12-10T05:27:34.152Z,1007.73
2018-12-10T05:28:34.120Z,1007.75
2018-12-10T05:29:34.083Z,1007.75
2018-12-10T05:30:34.048Z,1007.80
2018-12-10T05:31:34.013Z,1007.80
2018-12-10T05:32:33.979Z,1007.85
2018-12-10T05:33:33.945Z,1007.86
2018-12-10T05:34:33.910Z,1007.91
2018-12-10T05:35:33.875Z,1007.89
2018-12-10T05:36:33.839Z,1007.91
2018-12-10T05:37:33.805Z,1007.89
2018-12-10T05:38:33.770Z,1007.89
2018-12-10T05:39:33.735Z,1007.93
2018-12-10T05:40:33.700Z,1007.88
2018-12-10T05:41:33.664Z,1007.88
2018-12-10T05:42:33.632Z,1007.87
2018-12-10T05:43:33.596Z,1007.92
2018-12-10T05:44:33.565Z,1007.86
2018-12-10T05:45:33.527Z,1007.93
2018-12-10T05:46:33.493Z,1007.91
2018-12-10T05:47:33.457Z,1007.91
2018-12-10T05:48:33.422Z,1007.98
2018-12-10T05:49:33.389Z,1008.01
2018-12-10T05:50:33.353Z,1008.06
2018-12-10T05:51:33.320Z,1008.00
2018-12-10T05:52:33.282Z,1008.02
2018-12-10T05:53:33.250Z,1008.02
2018-12-10T05:54:33.213Z,1008.08
2018-12-10T05:55:33.181Z,1008.18
2018-12-10T05:56:33.143Z,1008.13
2018-12-10T05:57:33.108Z,1008.21
2018-12-10T05:58:33.073Z,1008.18
2018-12-10T05:59:33.037Z,1008.15
2018-12-10T06:00:33.003Z,1008.13
2018-12-10T06:01:32.968Z,1008.16
2018-12-10T06:02:32.934Z,1008.04
2018-12-10T06:03:32.899Z,1008.15
2018-12-10T06:04:32.863Z,1008.24
2018-12-10T06:05:32.829Z,1008.21
2018-12-10T06:06:32.797Z,1008.15
2018-12-10T06:07:32.759Z,1008.16
2018-12-10T06:08:32.723Z,1008.16
2018-12-10T06:09:32.690Z,1008.23
2018-12-10T06:10:32.656Z,1008.20
2018-12-10T06:11:32.620Z,1008.18
2018-12-10T06:12:32.584Z,1008.15
2018-12-10T06:13:32.554Z,1008.20
2018-12-10T06:14:32.517Z,1008.19
2018-12-10T06:15:32.481Z,1008.20
2018-12-10T06:16:32.445Z,1008.15
2018-12-10T06:17:32.411Z,1008.22
2018-12-10T06:18:32.377Z,1008.16
2018-12-10T06:19:32.341Z,1008.18
2018-12-10T06:20:32.306Z,1008.13
2018-12-10T06:21:32.271Z,1008.10
2018-12-10T06:22:32.237Z,1008.11
2018-12-10T06:23:32.200Z,1008.21
2018-12-10T06:24:32.168Z,1008.20
2018-12-10T06:25:32.131Z,1008.31
2018-12-10T06:26:32.100Z,1008.30
2018-12-10T06:27:32.060Z,1008.33
2018-12-10T06:28:32.025Z,1008.33
2018-12-10T06:29:31.992Z,1008.34
2018-12-10T06:30:31.957Z,1008.35
2018-12-10T06:31:31.920Z,1008.37
2018-12-10T06:32:31.888Z,1008.37
2018-12-10T06:33:31.850Z,1008.38
2018-12-10T06:34:31.817Z,1008.33
2018-12-10T06:35:31.780Z,1008.36
2018-12-10T06:36:31.745Z,1008.35
2018-12-10T06:37:37.539Z,1008.43
2018-12-10T06:38:31.675Z,1008.41
2018-12-10T06:39:31.640Z,1008.46
2018-12-10T06:40:31.606Z,1008.53
2018-12-10T06:41:31.571Z,1008.53
2018-12-10T06:42:31.535Z,1008.61
2018-12-10T06:43:31.500Z,1008.62
2018-12-10T06:44:31.466Z,1008.49
2018-12-10T06:45:31.432Z,1008.50
2018-12-10T06:46:31.396Z,1008.57
2018-12-10T06:47:31.360Z,1008.60
2018-12-10T06:48:31.440Z,1008.57
2018-12-10T06:49:31.290Z,1008.59
2018-12-10T06:50:31.257Z,1008.57
2018-12-10T06:51:31.221Z,1008.61
2018-12-10T06:52:31.185Z,1008.68
2018-12-10T06:53:31.152Z,1008.72
2018-12-10T06:54:31.117Z,1008.70
2018-12-10T06:55:31.084Z,1008.77
2018-12-10T06:56:31.046Z,1008.66
2018-12-10T06:57:31.018Z,1008.82
2018-12-10T06:58:30.977Z,1008.73
2018-12-10T06:59:30.943Z,1008.67
2018-12-10T07:00:30.909Z,1008.80
2018-12-10T07:01:30.872Z,1008.81
2018-12-10T07:02:30.838Z,1008.86
2018-12-10T07:03:30.801Z,1008.80
2018-12-10T07:04:30.769Z,1008.85
2018-12-10T07:05:30.733Z,1008.85
2018-12-10T07:06:30.699Z,1008.80
2018-12-10T07:07:30.667Z,1008.84
2018-12-10T07:08:30.629Z,1008.85
2018-12-10T07:09:30.594Z,1008.80
2018-12-10T07:10:30.559Z,1008.78
2018-12-10T07:11:30.525Z,1008.83
2018-12-10T07:12:30.590Z,1008.82
2018-12-10T07:13:30.454Z,1008.90
2018-12-10T07:14:30.419Z,1008.88
2018-12-10T07:15:30.384Z,1008.91
2018-12-10T07:16:30.350Z,1008.85
2018-12-10T07:17:30.315Z,1008.86
2018-12-10T07:18:30.281Z,1008.91
2018-12-10T07:19:30.250Z,1008.90
2018-12-10T07:20:30.210Z,1008.94
2018-12-10T07:21:30.174Z,1008.93
2018-12-10T07:22:30.142Z,1008.93
2018-12-10T07:23:30.107Z,1008.93
2018-12-10T07:24:30.071Z,1008.93
2018-12-10T07:25:30.036Z,1008.94
2018-12-10T07:26:30.001Z,1008.88
2018-12-10T07:27:29.965Z,1008.91
2018-12-10T07:28:29.931Z,1008.93
2018-12-10T07:29:29.897Z,1008.97
2018-12-10T07:30:29.860Z,1008.96
2018-12-10T07:31:29.825Z,1008.99
2018-12-10T07:32:29.791Z,1009.04
2018-12-10T07:33:29.755Z,1009.00
2018-12-10T07:34:29.721Z,1008.99
2018-12-10T07:35:29.685Z,1009.03
2018-12-10T07:36:29.653Z,1009.03
2018-12-10T07:37:29.616Z,1009.01
2018-12-10T07:38:29.580Z,1008.99
2018-12-10T07:39:29.545Z,1009.04
2018-12-10T07:40:29.509Z,1009.03
2018-12-10T07:41:29.475Z,1009.03
2018-12-10T07:42:29.440Z,1009.08
2018-12-10T07:43:29.462Z,1009.04
2018-12-10T07:44:29.370Z,1009.06
2018-12-10T07:45:29.336Z,1009.19
2018-12-10T07:46:29.299Z,1009.28
2018-12-10T07:47:29.268Z,1009.17
2018-12-10T07:48:29.228Z,1009.11
2018-12-10T07:49:29.196Z,1009.08
2018-12-10T07:50:29.171Z,1009.13
2018-12-10T07:51:29.123Z,1009.09
2018-12-10T07:52:29.088Z,1009.19
2018-12-10T07:53:29.054Z,1009.22
2018-12-10T07:54:29.020Z,1009.24
2018-12-10T07:55:28.984Z,1009.19
2018-12-10T07:56:29.307Z,1009.21
2018-12-10T07:57:28.913Z,1009.18
2018-12-10T07:58:28.879Z,1009.26
2018-12-10T07:59:28.844Z,1009.25
2018-12-10T08:00:28.811Z,1009.29
2018-12-10T08:01:28.773Z,1009.24
2018-12-10T08:02:28.738Z,1009.26
2018-12-10T08:03:28.703Z,1009.26
2018-12-10T08:04:28.667Z,1009.20
2018-12-10T08:05:28.634Z,1009.31
2018-12-10T08:06:28.598Z,1009.27
2018-12-10T08:07:28.584Z,1009.29
2018-12-10T08:08:28.529Z,1009.31
2018-12-10T08:09:28.494Z,1009.34
2018-12-10T08:10:28.462Z,1009.36
2018-12-10T08:11:28.427Z,1009.35
2018-12-10T08:12:28.389Z,1009.29
2018-12-10T08:13:28.354Z,1009.36
2018-12-10T08:14:28.323Z,1009.39
2018-12-10T08:15:28.285Z,1009.33
2018-12-10T08:16:28.252Z,1009.39
2018-12-10T08:17:28.216Z,1009.33
2018-12-10T08:18:28.181Z,1009.42
2018-12-10T08:19:28.145Z,1009.42
2018-12-10T08:20:28.114Z,1009.35
2018-12-10T08:21:28.077Z,1009.42
2018-12-10T08:22:28.042Z,1009.40
2018-12-10T08:23:28.024Z,1009.52
2018-12-10T08:24:27.971Z,1009.48
2018-12-10T08:25:27.941Z,1009.48
2018-12-10T08:26:27.904Z,1009.48
2018-12-10T08:27:27.869Z,1009.51
2018-12-10T08:28:27.833Z,1009.60
2018-12-10T08:29:27.798Z,1009.60
2018-12-10T08:30:27.763Z,1009.61
2018-12-10T08:31:27.729Z,1009.62
2018-12-10T08:32:27.701Z,1009.59
2018-12-10T08:33:27.667Z,1009.58
2018-12-10T08:34:27.625Z,1009.65
2018-12-10T08:35:27.589Z,1009.61
2018-12-10T08:36:27.555Z,1009.71
2018-12-10T08:37:27.520Z,1009.57
2018-12-10T08:38:27.488Z,1009.66
2018-12-10T08:39:27.452Z,1009.63
2018-12-10T08:40:27.421Z,1009.68
2018-12-10T08:41:27.384Z,1009.66
2018-12-10T08:42:27.350Z,1009.68
2018-12-10T08:43:27.313Z,1009.65
2018-12-10T08:44:27.278Z,1009.65
2018-12-10T08:45:27.243Z,1009.63
2018-12-10T08:46:27.210Z,1009.56
2018-12-10T08:47:27.174Z,1009.64
2018-12-10T08:48:27.139Z,1009.70
2018-12-10T08:49:27.105Z,1009.69
2018-12-10T08:50:27.074Z,1009.68
2018-12-10T08:51:27.035Z,1009.70
2018-12-10T08:52:27.002Z,1009.68
2018-12-10T08:53:26.967Z,1009.64
2018-12-10T08:54:26.932Z,1009.72
2018-12-10T08:55:26.897Z,1009.66
2018-12-10T08:56:26.863Z,1009.64
2018-12-10T08:57:26.830Z,1009.64
2018-12-10T08:58:26.794Z,1009.64
2018-12-10T08:59:26.760Z,1009.66
2018-12-10T09:00:26.726Z,1009.69
2018-12-10T09:01:26.693Z,1009.76
2018-12-10T09:02:26.658Z,1009.72
2018-12-10T09:03:26.624Z,1009.69
2018-12-10T09:04:26.590Z,1009.71
2018-12-10T09:05:26.559Z,1009.68
2018-12-10T09:06:26.522Z,1009.75
2018-12-10T09:07:26.488Z,1009.70
2018-12-10T09:08:26.455Z,1009.70
2018-12-10T09:09:26.421Z,1009.76
2018-12-10T09:10:26.387Z,1009.77
2018-12-10T09:11:26.353Z,1009.83
2018-12-10T09:12:26.319Z,1009.70
2018-12-10T09:13:26.286Z,1009.84
2018-12-10T09:14:26.253Z,1009.85
2018-12-10T09:15:26.218Z,1009.78
2018-12-10T09:16:26.184Z,1009.86
2018-12-10T09:17:26.150Z,1009.81
2018-12-10T09:18:26.115Z,1009.87
2018-12-10T09:19:26.083Z,1009.91
2018-12-10T09:20:26.049Z,1009.96
2018-12-10T09:21:26.014Z,1009.89
2018-12-10T09:22:25.981Z,1009.93
2018-12-10T09:23:25.947Z,1009.91
2018-12-10T09:24:25.913Z,1009.92
2018-12-10T09:25:26.368Z,1009.97
2018-12-10T09:26:25.844Z,1009.89
2018-12-10T09:27:25.810Z,1009.86
2018-12-10T09:28:25.776Z,1009.82
2018-12-10T09:29:25.782Z,1009.87
2018-12-10T09:30:25.708Z,1009.89
2018-12-10T09:31:25.673Z,1009.92
2018-12-10T09:32:25.641Z,1009.90
2018-12-10T09:33:25.610Z,1009.94
2018-12-10T09:34:25.579Z,1009.89
2018-12-10T09:35:25.538Z,1009.91
2018-12-10T09:36:25.505Z,1009.96
2018-12-10T09:37:25.470Z,1009.96
2018-12-10T09:38:25.436Z,1009.98
2018-12-10T09:39:25.402Z,1009.96
2018-12-10T09:40:25.370Z,1009.92
2018-12-10T09:41:25.336Z,1009.95
2018-12-10T09:42:25.305Z,1009.97
2018-12-10T09:43:25.269Z,1009.93
2018-12-10T09:44:25.237Z,1009.96
2018-12-10T09:45:25.202Z,1009.96
2018-12-10T09:46:27.629Z,1009.95
2018-12-10T09:47:25.134Z,1009.92
2018-12-10T09:48:25.101Z,1009.92
2018-12-10T09:49:25.069Z,1009.89
2018-12-10T09:50:25.035Z,1009.98
2018-12-10T09:51:25.002Z,1009.98
2018-12-10T09:52:24.970Z,1009.99
2018-12-10T09:53:24.937Z,1009.99
2018-12-10T09:54:24.903Z,1009.97
2018-12-10T09:55:24.871Z,1010.00
2018-12-10T09:56:24.838Z,1010.01
2018-12-10T09:57:24.851Z,1009.92
2018-12-10T09:58:24.772Z,1009.92
2018-12-10T09:59:24.738Z,1009.99
2018-12-10T10:00:24.706Z,1009.88
2018-12-10T10:01:26.114Z,1010.05
2018-12-10T10:02:24.642Z,1010.00
2018-12-10T10:03:24.606Z,1010.05
2018-12-10T10:04:24.575Z,1010.01
2018-12-10T10:05:24.542Z,1009.99
2018-12-10T10:06:24.509Z,1009.94
2018-12-10T10:07:28.413Z,1010.00
2018-12-10T10:08:24.444Z,1009.99
2018-12-10T10:09:24.413Z,1009.93
2018-12-10T10:10:24.378Z,1009.96
2018-12-10T10:11:24.347Z,1009.99
2018-12-10T10:12:24.313Z,1009.91
2018-12-10T10:13:24.280Z,1009.88
2018-12-10T10:14:24.248Z,1009.95
2018-12-10T10:15:24.218Z,1010.09
2018-12-10T10:16:24.180Z,1010.09
2018-12-10T10:17:24.152Z,1010.09
2018-12-10T10:18:24.117Z,1010.03
2018-12-10T10:19:24.082Z,1010.07
2018-12-10T10:20:24.050Z,1010.14
2018-12-10T10:21:24.018Z,1010.05
2018-12-10T10:22:23.986Z,1010.03
2018-12-10T10:23:23.951Z,1010.00
2018-12-10T10:24:23.924Z,1010.14
2018-12-10T10:25:23.887Z,1010.10
2018-12-10T10:26:23.854Z,1010.15
2018-12-10T10:27:23.822Z,1010.14
2018-12-10T10:28:23.790Z,1010.16
2018-12-10T10:29:23.755Z,1010.24
2018-12-10T10:30:23.722Z,1010.24
2018-12-10T10:31:23.690Z,1010.26
2018-12-10T10:32:23.656Z,1010.21
2018-12-10T10:33:32.156Z,1010.30
2018-12-10T10:34:23.592Z,1010.20
2018-12-10T10:35:23.559Z,1010.22
2018-12-10T10:36:23.525Z,1010.29
2018-12-10T10:37:23.493Z,1010.31
2018-12-10T10:38:23.458Z,1010.33
2018-12-10T10:39:23.425Z,1010.25
2018-12-10T10:40:23.393Z,1010.33
2018-12-10T10:41:31.121Z,1010.41
2018-12-10T10:42:23.326Z,1010.27
2018-12-10T10:43:23.295Z,1010.26
2018-12-10T10:44:23.259Z,1010.29
2018-12-10T10:45:23.227Z,1010.26
2018-12-10T10:46:23.192Z,1010.24
2018-12-10T10:47:23.158Z,1010.22
2018-12-10T10:48:23.125Z,1010.26
2018-12-10T10:49:23.092Z,1010.33
2018-12-10T10:50:23.059Z,1010.28
2018-12-10T10:51:23.025Z,1010.35
2018-12-10T10:52:22.991Z,1010.16
2018-12-10T10:53:22.959Z,1010.30
2018-12-10T10:54:22.925Z,1010.17
2018-12-10T10:55:22.891Z,1010.17
2018-12-10T10:56:22.857Z,1010.22
2018-12-10T10:57:22.824Z,1010.26
2018-12-10T10:58:22.792Z,1010.23
2018-12-10T10:59:22.757Z,1010.25
2018-12-10T11:00:22.725Z,1010.23
2018-12-10T11:01:22.688Z,1010.29
2018-12-10T11:02:22.655Z,1010.28
2018-12-10T11:03:22.623Z,1010.32
2018-12-10T11:04:22.587Z,1010.27
2018-12-10T11:05:22.554Z,1010.26
2018-12-10T11:06:22.521Z,1010.21
2018-12-10T11:07:22.485Z,1010.23
2018-12-10T11:08:22.451Z,1010.20
2018-12-10T11:09:22.419Z,1010.17
2018-12-10T11:10:22.384Z,1010.25
2018-12-10T11:11:22.350Z,1010.25
2018-12-10T11:12:22.315Z,1010.14
2018-12-10T11:13:22.280Z,1010.27
2018-12-10T11:14:22.248Z,1010.19
2018-12-10T11:15:22.213Z,1010.22
2018-12-10T11:16:22.177Z,1010.23
2018-12-10T11:17:22.146Z,1010.24
2018-12-10T11:18:22.111Z,1010.23
2018-12-10T11:19:22.075Z,1010.17
2018-12-10T11:20:22.043Z,1010.21
2018-12-10T11:21:22.008Z,1010.18
2018-12-10T11:22:21.974Z,1010.13
2018-12-10T11:23:21.940Z,1010.15
2018-12-10T11:24:21.908Z,1010.08
2018-12-10T11:25:21.886Z,1010.10
2018-12-10T11:26:21.841Z,1010.20
2018-12-10T11:27:21.810Z,1010.03
2018-12-10T11:28:21.772Z,1010.03
2018-12-10T11:29:21.738Z,1010.06
2018-12-10T11:30:21.705Z,1010.03
2018-12-10T11:31:21.670Z,1009.97
2018-12-10T11:32:21.638Z,1009.96
2018-12-10T11:33:21.604Z,1009.92
2018-12-10T11:34:21.569Z,1009.92
2018-12-10T11:35:21.537Z,1009.87
2018-12-10T11:36:21.504Z,1009.97
2018-12-10T11:37:21.470Z,1009.97
2018-12-10T11:38:21.435Z,1009.98
2018-12-10T11:39:21.402Z,1010.09
2018-12-10T11:40:21.369Z,1009.99
2018-12-10T11:41:21.334Z,1010.03
2018-12-10T11:42:21.302Z,1009.97
2018-12-10T11:43:21.267Z,1009.96
2018-12-10T11:44:21.236Z,1010.07
2018-12-10T11:45:21.201Z,1010.09
2018-12-10T11:46:21.168Z,1010.18
2018-12-10T11:47:21.135Z,1010.07
2018-12-10T11:48:21.101Z,1010.07
2018-12-10T11:49:21.067Z,1010.11
2018-12-10T11:50:21.063Z,1010.11
2018-12-10T11:51:21.000Z,1010.22
2018-12-10T11:52:20.967Z,1010.09
2018-12-10T11:53:20.934Z,1010.12
2018-12-10T11:54:20.901Z,1010.10
2018-12-10T11:55:20.866Z,1010.03
2018-12-10T11:56:20.834Z,1010.13
2018-12-10T11:57:20.800Z,1010.06
2018-12-10T11:58:20.769Z,1010.05
2018-12-10T11:59:20.733Z,1010.05
2018-12-10T12:00:20.701Z,1010.10
2018-12-10T12:01:20.669Z,1010.06
2018-12-10T12:02:20.634Z,1010.06
2018-12-10T12:03:20.598Z,1010.05
2018-12-10T12:04:20.566Z,1010.04
2018-12-10T12:05:20.532Z,1010.05